createdAt,value
2023-02-08T00:01:53.655Z,44.97
2023-02-08T00:04:20.218Z,45.11
2023-02-08T00:06:46.733Z,45.04
2023-02-08T00:09:14.000Z,45.11
2023-02-08T00:11:40.456Z,45.05
2023-02-08T00:14:08.915Z,45.08
2023-02-08T00:16:35.536Z,45.49
2023-02-08T00:19:02.178Z,45.59
2023-02-08T00:21:28.716Z,45.80
2023-02-08T00:23:55.228Z,46.03
2023-02-08T00:26:21.865Z,46.31
2023-02-08T00:28:49.358Z,45.50
2023-02-08T00:31:17.700Z,46.29
2023-02-08T00:33:44.457Z,46.28
2023-02-08T00:36:12.211Z,45.76
2023-02-08T00:38:41.779Z,45.74
2023-02-08T00:41:08.828Z,46.49
2023-02-08T00:43:35.868Z,45.97
2023-02-08T00:46:02.561Z,46.20
2023-02-08T00:48:29.187Z,45.78
2023-02-08T00:51:01.714Z,45.83
2023-02-08T00:53:28.323Z,45.67
2023-02-08T00:55:55.505Z,45.53
2023-02-08T00:58:22.317Z,45.21
2023-02-08T01:00:51.264Z,45.00
2023-02-08T01:03:17.880Z,45.66
2023-02-08T01:05:44.574Z,45.76
2023-02-08T01:08:11.185Z,45.26
2023-02-08T01:10:38.001Z,46.04
2023-02-08T01:13:04.757Z,46.16
2023-02-08T01:15:31.284Z,46.68
2023-02-08T01:17:58.227Z,46.79
2023-02-08T01:20:24.821Z,46.64
2023-02-08T01:22:53.720Z,46.99
2023-02-08T01:25:20.204Z,46.25
2023-02-08T01:27:46.988Z,46.08
2023-02-08T01:30:13.966Z,46.78
2023-02-08T01:32:40.483Z,47.34
2023-02-08T01:35:07.062Z,47.79
2023-02-08T01:37:33.571Z,47.39
2023-02-08T01:40:00.135Z,47.15
2023-02-08T01:42:26.953Z,47.99
2023-02-08T01:44:59.461Z,48.17
2023-02-08T01:47:26.495Z,48.23
2023-02-08T01:49:53.131Z,48.39
2023-02-08T01:52:21.709Z,48.58
2023-02-08T01:54:54.713Z,48.37
2023-02-08T01:57:22.333Z,48.37
2023-02-08T01:59:51.983Z,48.09
2023-02-08T02:02:20.919Z,47.54
2023-02-08T02:04:48.608Z,46.86
2023-02-08T02:07:16.239Z,47.46
2023-02-08T02:09:45.568Z,47.18
2023-02-08T02:12:12.364Z,47.68
2023-02-08T02:14:39.221Z,47.59
2023-02-08T02:17:06.321Z,47.67
2023-02-08T02:19:54.987Z,47.66
2023-02-08T02:22:39.729Z,48.42
2023-02-08T02:25:09.396Z,48.57
2023-02-08T02:27:38.898Z,48.91
2023-02-08T02:30:11.433Z,48.57
2023-02-08T02:33:01.563Z,49.35
2023-02-08T02:35:35.569Z,49.69
2023-02-08T02:38:09.314Z,50.59
2023-02-08T02:40:54.825Z,50.83
2023-02-08T02:43:39.989Z,50.44
2023-02-08T02:46:12.455Z,50.71
2023-02-08T02:48:48.182Z,50.08
2023-02-08T02:51:17.755Z,50.29
2023-02-08T02:53:54.424Z,50.20
2023-02-08T02:56:26.859Z,49.30
2023-02-08T02:58:56.685Z,49.54
2023-02-08T03:01:26.141Z,49.83
2023-02-08T03:03:53.323Z,49.45
2023-02-08T03:06:29.212Z,49.86
2023-02-08T03:09:03.963Z,50.49
2023-02-08T03:11:35.307Z,50.93
2023-02-08T03:14:08.069Z,50.93
2023-02-08T03:16:49.881Z,51.06
2023-02-08T03:19:27.768Z,50.44
2023-02-08T03:22:12.347Z,50.77
2023-02-08T03:24:54.252Z,50.41
2023-02-08T03:27:23.830Z,50.51
2023-02-08T03:29:56.364Z,51.00
2023-02-08T03:32:35.096Z,51.10
2023-02-08T03:35:08.993Z,50.89
2023-02-08T03:37:45.551Z,51.08
2023-02-08T03:40:16.817Z,51.59
2023-02-08T03:42:45.643Z,51.25
2023-02-08T03:45:38.528Z,51.33
2023-02-08T03:48:06.897Z,50.98
2023-02-08T03:50:35.339Z,51.40
2023-02-08T03:53:02.221Z,51.45
2023-02-08T03:55:31.272Z,51.83
2023-02-08T03:58:01.434Z,51.13
2023-02-08T04:00:30.450Z,51.49
2023-02-08T04:02:59.952Z,51.04
2023-02-08T04:05:26.881Z,50.84
2023-02-08T04:07:53.622Z,50.96
2023-02-08T04:10:20.576Z,50.82
2023-02-08T04:12:48.218Z,49.87
2023-02-08T04:15:15.294Z,50.50
2023-02-08T04:17:41.756Z,50.33
2023-02-08T04:20:08.649Z,50.12
2023-02-08T04:22:35.229Z,50.24
2023-02-08T04:25:01.730Z,49.60
2023-02-08T04:27:28.257Z,49.83
2023-02-08T04:29:54.765Z,49.68
2023-02-08T04:32:21.404Z,49.74
2023-02-08T04:34:47.911Z,49.70
2023-02-08T04:37:14.512Z,49.25
2023-02-08T04:39:41.035Z,49.29
2023-02-08T04:42:08.529Z,49.33
2023-02-08T04:44:35.109Z,49.50
2023-02-08T04:47:01.725Z,48.63
2023-02-08T04:49:28.246Z,49.92
2023-02-08T04:51:54.844Z,50.24
2023-02-08T04:54:21.524Z,50.55
2023-02-08T04:56:48.072Z,50.75
2023-02-08T04:59:14.617Z,50.74
2023-02-08T05:01:41.265Z,51.32
2023-02-08T05:04:08.006Z,51.30
2023-02-08T05:06:34.575Z,50.91
2023-02-08T05:09:01.068Z,50.87
2023-02-08T05:11:27.595Z,51.36
2023-02-08T05:13:54.132Z,51.88
2023-02-08T05:16:20.680Z,51.93
2023-02-08T05:18:47.219Z,51.91
2023-02-08T05:21:13.687Z,51.71
2023-02-08T05:23:40.285Z,51.53
2023-02-08T05:26:07.715Z,52.36
2023-02-08T05:28:34.488Z,51.87
2023-02-08T05:31:09.492Z,52.19
2023-02-08T05:33:36.095Z,52.57
2023-02-08T05:36:04.910Z,52.84
2023-02-08T05:38:31.765Z,52.83
2023-02-08T05:40:58.260Z,53.07
2023-02-08T05:43:25.122Z,53.29
2023-02-08T05:45:51.735Z,52.63
2023-02-08T05:48:18.700Z,53.37
2023-02-08T05:50:45.243Z,53.32
2023-02-08T05:53:14.296Z,53.35
2023-02-08T05:55:43.956Z,53.73
2023-02-08T05:58:10.512Z,53.42
2023-02-08T06:00:37.113Z,52.93
2023-02-08T06:03:03.728Z,53.55
2023-02-08T06:05:31.112Z,53.45
2023-02-08T06:07:57.779Z,53.49
2023-02-08T06:10:24.507Z,53.53
2023-02-08T06:12:51.039Z,53.50
2023-02-08T06:15:17.581Z,53.63
2023-02-08T06:17:44.187Z,53.61
2023-02-08T06:20:10.984Z,52.75
2023-02-08T06:22:37.770Z,52.44
2023-02-08T06:25:04.442Z,52.55
2023-02-08T06:27:31.040Z,52.81
2023-02-08T06:29:57.628Z,53.38
2023-02-08T06:32:24.134Z,52.94
2023-02-08T06:34:51.517Z,53.33
2023-02-08T06:37:18.696Z,53.30
2023-02-08T06:39:45.384Z,53.31
2023-02-08T06:42:12.139Z,53.39
2023-02-08T06:44:45.914Z,53.47
2023-02-08T06:47:18.301Z,52.90
2023-02-08T06:49:44.925Z,53.44
2023-02-08T06:52:11.526Z,53.66
2023-02-08T06:54:38.233Z,53.26
2023-02-08T06:57:05.842Z,53.34
2023-02-08T06:59:32.485Z,53.46
2023-02-08T07:02:01.135Z,53.01
2023-02-08T07:04:27.850Z,53.07
2023-02-08T07:06:54.427Z,52.92
2023-02-08T07:09:21.135Z,53.25
2023-02-08T07:11:47.723Z,53.91
2023-02-08T07:14:16.202Z,56.02
2023-02-08T07:16:42.835Z,57.29
2023-02-08T07:19:09.808Z,56.25
2023-02-08T07:21:37.402Z,54.35
2023-02-08T07:24:04.331Z,53.12
2023-02-08T07:26:31.070Z,52.95
2023-02-08T07:28:58.372Z,52.42
2023-02-08T07:31:26.132Z,52.92
2023-02-08T07:33:53.112Z,52.95
2023-02-08T07:36:20.040Z,52.75
2023-02-08T07:38:48.038Z,52.55
2023-02-08T07:41:15.376Z,51.92
2023-02-08T07:43:43.079Z,50.17
2023-02-08T07:46:11.124Z,49.42
2023-02-08T07:48:40.124Z,48.32
2023-02-08T07:51:07.861Z,48.17
2023-02-08T07:53:36.225Z,48.10
2023-02-08T07:56:03.430Z,47.12
2023-02-08T07:58:30.186Z,46.15
2023-02-08T08:00:57.417Z,46.92
2023-02-08T08:03:25.041Z,46.29
2023-02-08T08:05:54.681Z,46.44
2023-02-08T08:08:21.580Z,46.62
2023-02-08T08:10:49.643Z,46.44
2023-02-08T08:13:16.162Z,47.46
2023-02-08T08:15:42.771Z,47.79
2023-02-08T08:18:09.435Z,47.84
2023-02-08T08:20:36.179Z,47.90
2023-02-08T08:23:06.256Z,48.00
2023-02-08T08:25:32.829Z,47.89
2023-02-08T08:27:59.435Z,48.12
2023-02-08T08:30:26.138Z,47.34
2023-02-08T08:32:52.831Z,47.08
2023-02-08T08:35:19.862Z,47.09
2023-02-08T08:37:46.342Z,47.11
2023-02-08T08:40:12.963Z,47.66
2023-02-08T08:42:39.874Z,47.21
2023-02-08T08:45:07.157Z,46.94
2023-02-08T08:47:35.246Z,47.84
2023-02-08T08:50:02.059Z,47.50
2023-02-08T08:52:29.381Z,46.97
2023-02-08T08:54:56.098Z,46.25
2023-02-08T08:57:22.674Z,46.11
2023-02-08T08:59:50.274Z,46.06
2023-02-08T09:02:16.949Z,47.17
2023-02-08T09:04:43.584Z,46.98
2023-02-08T09:07:10.473Z,46.80
2023-02-08T09:09:37.305Z,47.43
2023-02-08T09:12:04.386Z,47.16
2023-02-08T09:14:30.945Z,46.22
2023-02-08T09:16:57.524Z,46.42
2023-02-08T09:19:24.175Z,46.68
2023-02-08T09:21:50.636Z,46.33
2023-02-08T09:24:17.183Z,46.48
2023-02-08T09:26:45.762Z,46.40
2023-02-08T09:29:12.315Z,46.00
2023-02-08T09:31:39.698Z,44.95
2023-02-08T09:34:06.618Z,45.79
2023-02-08T09:36:35.212Z,45.08
2023-02-08T09:39:06.165Z,44.30
2023-02-08T09:41:39.719Z,44.16
2023-02-08T09:44:18.628Z,43.87
2023-02-08T09:46:56.078Z,43.22
2023-02-08T09:49:26.216Z,43.40
2023-02-08T09:51:56.969Z,43.86
2023-02-08T09:54:29.880Z,43.70
2023-02-08T09:56:58.465Z,42.51
2023-02-08T09:59:28.123Z,41.70
2023-02-08T10:02:04.428Z,41.81
2023-02-08T10:04:40.175Z,41.82
2023-02-08T10:07:08.840Z,41.45
2023-02-08T10:09:35.773Z,39.34
2023-02-08T10:12:12.813Z,40.22
2023-02-08T10:14:39.393Z,40.25
2023-02-08T10:17:05.992Z,39.84
2023-02-08T10:19:38.744Z,39.35
2023-02-08T10:22:25.479Z,39.31
2023-02-08T10:24:58.105Z,39.54
2023-02-08T10:27:33.780Z,37.96
2023-02-08T10:30:36.023Z,38.73
2023-02-08T10:33:07.049Z,38.45
2023-02-08T10:35:37.454Z,37.62
2023-02-08T10:38:13.165Z,38.21
2023-02-08T10:40:40.843Z,37.59
2023-02-08T10:43:26.314Z,36.87
2023-02-08T10:46:09.198Z,34.81
2023-02-08T10:48:38.821Z,28.74
2023-02-08T10:51:05.886Z,24.05
2023-02-08T10:53:33.631Z,24.02
2023-02-08T10:56:00.209Z,24.54
2023-02-08T10:58:26.849Z,20.42
2023-02-08T11:00:54.398Z,18.05
2023-02-08T11:03:28.409Z,16.27
2023-02-08T11:05:55.491Z,17.83
2023-02-08T11:08:23.474Z,18.53
2023-02-08T11:10:58.143Z,17.41
2023-02-08T11:13:28.036Z,17.18
2023-02-08T11:15:59.022Z,15.71
2023-02-08T11:18:33.192Z,14.28
2023-02-08T11:21:02.077Z,13.87
2023-02-08T11:23:31.053Z,12.68
2023-02-08T11:26:17.833Z,10.81
2023-02-08T11:28:44.575Z,10.83
2023-02-08T11:31:20.881Z,10.53
2023-02-08T11:34:04.495Z,10.30
2023-02-08T11:36:32.839Z,10.49
2023-02-08T11:39:01.461Z,10.62
2023-02-08T11:41:28.274Z,9.68
2023-02-08T11:44:00.979Z,9.02
2023-02-08T11:46:28.624Z,9.38
2023-02-08T11:48:56.122Z,9.29
2023-02-08T11:51:28.173Z,9.25
2023-02-08T11:53:54.805Z,9.45
2023-02-08T11:56:22.662Z,9.32
2023-02-08T11:59:08.172Z,9.62
2023-02-08T12:01:36.787Z,9.52
2023-02-08T12:04:05.816Z,9.37
2023-02-08T12:06:32.353Z,10.17
2023-02-08T12:09:03.547Z,9.34
2023-02-08T12:11:46.776Z,9.80
2023-02-08T12:14:24.314Z,9.51
2023-02-08T12:17:04.926Z,9.06
2023-02-08T12:19:50.195Z,10.19
2023-02-08T12:22:27.759Z,9.63
2023-02-08T12:24:57.367Z,10.46
2023-02-08T12:27:40.935Z,10.13
2023-02-08T12:30:26.471Z,10.50
2023-02-08T12:33:01.540Z,10.79
2023-02-08T12:35:45.727Z,11.67
2023-02-08T12:38:42.406Z,11.13
2023-02-08T12:41:15.086Z,10.98
2023-02-08T12:43:58.653Z,11.46
2023-02-08T12:46:31.507Z,10.74
2023-02-08T12:49:13.538Z,11.23
2023-02-08T12:51:47.046Z,10.90
2023-02-08T12:54:22.863Z,11.28
2023-02-08T12:57:01.512Z,11.08
2023-02-08T12:59:35.696Z,11.78
2023-02-08T13:02:05.369Z,11.90
2023-02-08T13:04:35.616Z,13.06
2023-02-08T13:07:04.345Z,13.56
2023-02-08T13:09:36.947Z,15.34
2023-02-08T13:12:06.705Z,18.26
2023-02-08T13:14:40.119Z,20.16
2023-02-08T13:17:29.751Z,21.79
2023-02-08T13:20:02.999Z,23.32
2023-02-08T13:22:32.388Z,23.43
2023-02-08T13:25:08.483Z,24.65
2023-02-08T13:27:35.692Z,25.36
2023-02-08T13:30:02.556Z,26.11
2023-02-08T13:32:31.833Z,26.70
2023-02-08T13:35:03.665Z,26.46
2023-02-08T13:37:32.377Z,26.99
2023-02-08T13:40:01.711Z,27.28
2023-02-08T13:42:31.645Z,27.26
2023-02-08T13:44:58.411Z,27.37
2023-02-08T13:47:27.326Z,27.25
2023-02-08T13:50:07.539Z,26.85
2023-02-08T13:52:46.902Z,27.56
2023-02-08T13:55:41.503Z,27.57
2023-02-08T13:58:14.315Z,27.90
2023-02-08T14:01:02.303Z,27.35
2023-02-08T14:03:29.826Z,27.61
2023-02-08T14:06:01.677Z,27.68
2023-02-08T14:08:28.153Z,27.47
2023-02-08T14:11:20.583Z,27.83
2023-02-08T14:14:16.126Z,28.91
2023-02-08T14:16:47.265Z,28.82
2023-02-08T14:19:18.169Z,28.04
2023-02-08T14:21:46.963Z,27.81
2023-02-08T14:24:19.457Z,28.52
2023-02-08T14:26:46.272Z,28.17
2023-02-08T14:29:21.668Z,28.54
2023-02-08T14:31:49.118Z,28.16
2023-02-08T14:34:34.338Z,28.14
2023-02-08T14:37:10.874Z,28.24
2023-02-08T14:39:37.579Z,27.92
2023-02-08T14:42:09.820Z,28.14
2023-02-08T14:44:39.490Z,28.34
2023-02-08T14:47:09.152Z,27.96
2023-02-08T14:49:37.625Z,27.92
2023-02-08T14:52:07.077Z,27.85
2023-02-08T14:54:33.487Z,27.97
2023-02-08T14:57:02.442Z,28.20
2023-02-08T14:59:31.461Z,28.59
2023-02-08T15:02:00.188Z,28.94
2023-02-08T15:04:27.340Z,28.91
2023-02-08T15:06:55.215Z,28.69
2023-02-08T15:09:23.862Z,29.40
2023-02-08T15:11:53.415Z,29.32
2023-02-08T15:14:21.587Z,28.88
2023-02-08T15:16:48.384Z,28.88
2023-02-08T15:19:27.609Z,29.51
2023-02-08T15:21:54.677Z,29.40
2023-02-08T15:24:22.626Z,29.18
2023-02-08T15:26:53.785Z,29.81
2023-02-08T15:29:24.604Z,30.24
2023-02-08T15:31:53.837Z,29.48
2023-02-08T15:34:22.195Z,29.35
2023-02-08T15:36:53.976Z,29.80
2023-02-08T15:39:26.659Z,29.56
2023-02-08T15:41:56.620Z,29.54
2023-02-08T15:44:24.829Z,29.92
2023-02-08T15:46:55.912Z,30.08
2023-02-08T15:49:33.798Z,30.24
2023-02-08T15:52:00.927Z,30.26
2023-02-08T15:54:27.626Z,30.24
2023-02-08T15:57:05.909Z,30.66
2023-02-08T15:59:34.759Z,31.27
2023-02-08T16:02:21.187Z,31.00
2023-02-08T16:04:47.853Z,30.98
2023-02-08T16:07:34.585Z,30.72
2023-02-08T16:10:01.439Z,30.69
2023-02-08T16:12:28.696Z,31.15
2023-02-08T16:14:58.678Z,30.30
2023-02-08T16:17:32.361Z,31.11
2023-02-08T16:19:58.983Z,31.53
2023-02-08T16:22:31.992Z,31.32
2023-02-08T16:25:17.382Z,31.69
2023-02-08T16:27:47.423Z,31.17
2023-02-08T16:30:19.324Z,32.16
2023-02-08T16:32:46.811Z,31.46
2023-02-08T16:35:14.434Z,32.54
2023-02-08T16:37:41.159Z,31.63
2023-02-08T16:40:27.041Z,32.53
2023-02-08T16:43:13.502Z,31.81
2023-02-08T16:45:40.112Z,32.21
2023-02-08T16:48:28.501Z,32.82
2023-02-08T16:50:55.358Z,31.83
2023-02-08T16:53:25.964Z,32.28
2023-02-08T16:55:57.219Z,32.15
2023-02-08T16:58:27.010Z,33.23
2023-02-08T17:00:53.984Z,32.96
2023-02-08T17:03:20.674Z,33.65
2023-02-08T17:05:47.357Z,33.82
2023-02-08T17:08:18.261Z,33.95
2023-02-08T17:10:45.539Z,33.75
2023-02-08T17:13:20.219Z,34.09
2023-02-08T17:15:48.881Z,33.33
2023-02-08T17:18:15.626Z,34.20
2023-02-08T17:20:42.876Z,33.62
2023-02-08T17:23:09.649Z,34.40
2023-02-08T17:25:36.645Z,34.33
2023-02-08T17:28:05.027Z,34.27
2023-02-08T17:30:36.687Z,35.32
2023-02-08T17:33:11.428Z,35.16
2023-02-08T17:35:38.201Z,35.64
2023-02-08T17:38:05.332Z,35.87
2023-02-08T17:40:34.014Z,36.33
2023-02-08T17:43:00.943Z,35.61
2023-02-08T17:45:28.273Z,35.90
2023-02-08T17:47:55.449Z,35.94
2023-02-08T17:50:22.434Z,36.61
2023-02-08T17:52:49.051Z,36.57
2023-02-08T17:55:16.337Z,36.50
2023-02-08T17:57:44.716Z,36.24
2023-02-08T18:00:13.115Z,36.35
2023-02-08T18:02:44.176Z,36.00
2023-02-08T18:05:10.696Z,36.40
2023-02-08T18:07:37.165Z,36.70
2023-02-08T18:10:04.206Z,36.90
2023-02-08T18:12:30.792Z,36.48
2023-02-08T18:14:57.336Z,36.49
2023-02-08T18:17:23.954Z,36.74
2023-02-08T18:19:50.571Z,36.66
2023-02-08T18:22:17.221Z,36.16
2023-02-08T18:24:43.899Z,36.56
2023-02-08T18:27:10.393Z,36.71
2023-02-08T18:29:37.006Z,36.67
2023-02-08T18:32:03.883Z,36.63
2023-02-08T18:34:30.533Z,36.27
2023-02-08T18:36:57.383Z,36.46
2023-02-08T18:39:24.224Z,37.07
2023-02-08T18:41:51.740Z,36.48
2023-02-08T18:44:19.008Z,36.48
2023-02-08T18:46:47.750Z,37.43
2023-02-08T18:49:16.020Z,37.35
2023-02-08T18:51:45.992Z,36.68
2023-02-08T18:54:16.860Z,37.20
2023-02-08T18:56:44.341Z,37.97
2023-02-08T18:59:11.355Z,37.95
2023-02-08T19:01:37.974Z,37.84
2023-02-08T19:04:04.801Z,37.93
2023-02-08T19:06:32.617Z,38.06
2023-02-08T19:09:01.652Z,38.31
2023-02-08T19:11:29.867Z,38.14
2023-02-08T19:13:57.666Z,38.39
2023-02-08T19:16:24.658Z,38.48
2023-02-08T19:18:53.038Z,38.55
2023-02-08T19:21:20.430Z,38.68
2023-02-08T19:23:47.573Z,38.71
2023-02-08T19:26:20.128Z,38.43
2023-02-08T19:28:46.663Z,38.72
2023-02-08T19:31:14.967Z,37.80
2023-02-08T19:33:42.833Z,38.44
2023-02-08T19:36:10.925Z,38.58
2023-02-08T19:38:37.422Z,39.35
2023-02-08T19:41:05.151Z,38.73
2023-02-08T19:43:31.688Z,39.13
2023-02-08T19:45:59.893Z,38.58
2023-02-08T19:48:26.742Z,38.78
2023-02-08T19:50:54.628Z,39.15
2023-02-08T19:53:21.119Z,38.39
2023-02-08T19:56:07.928Z,39.29
2023-02-08T19:58:35.138Z,38.72
2023-02-08T20:01:18.495Z,39.41
2023-02-08T20:03:45.878Z,39.40
2023-02-08T20:06:15.505Z,39.58
2023-02-08T20:08:42.161Z,39.08
2023-02-08T20:11:15.461Z,39.77
2023-02-08T20:13:41.944Z,39.04
2023-02-08T20:16:08.508Z,39.89
2023-02-08T20:18:35.088Z,39.77
2023-02-08T20:21:02.517Z,39.00
2023-02-08T20:23:30.648Z,39.72
2023-02-08T20:26:23.594Z,39.84
2023-02-08T20:28:54.027Z,40.11
2023-02-08T20:31:22.729Z,40.33
2023-02-08T20:33:49.523Z,40.29
2023-02-08T20:36:17.360Z,40.41
2023-02-08T20:38:43.875Z,40.00
2023-02-08T20:41:11.600Z,40.78
2023-02-08T20:43:38.063Z,40.56
2023-02-08T20:46:05.850Z,40.67
2023-02-08T20:48:32.574Z,40.41
2023-02-08T20:51:09.779Z,40.28
2023-02-08T20:53:37.261Z,40.43
2023-02-08T20:56:11.299Z,40.73
2023-02-08T20:58:38.556Z,40.05
2023-02-08T21:01:12.402Z,40.75
2023-02-08T21:03:38.955Z,40.70
2023-02-08T21:06:16.072Z,39.93
2023-02-08T21:08:43.046Z,40.02
2023-02-08T21:11:10.046Z,39.98
2023-02-08T21:13:37.124Z,41.00
2023-02-08T21:16:04.787Z,41.00
2023-02-08T21:18:31.310Z,40.63
2023-02-08T21:20:58.739Z,40.70
2023-02-08T21:23:25.505Z,41.79
2023-02-08T21:25:52.082Z,41.30
2023-02-08T21:28:18.784Z,41.49
2023-02-08T21:30:45.941Z,41.87
2023-02-08T21:33:14.246Z,41.96
2023-02-08T21:35:41.162Z,41.32
2023-02-08T21:38:07.697Z,40.83
2023-02-08T21:40:34.613Z,41.84
2023-02-08T21:43:01.128Z,42.07
2023-02-08T21:45:27.675Z,41.66
2023-02-08T21:47:54.831Z,42.01
2023-02-08T21:50:39.903Z,41.72
2023-02-08T21:53:25.099Z,41.12
2023-02-08T21:55:51.618Z,41.75
2023-02-08T21:58:19.471Z,41.21
2023-02-08T22:01:00.257Z,41.87
2023-02-08T22:03:29.070Z,41.36
2023-02-08T22:06:14.853Z,42.34
2023-02-08T22:08:41.576Z,41.77
2023-02-08T22:11:08.986Z,42.31
2023-02-08T22:13:35.592Z,42.47
2023-02-08T22:16:06.897Z,42.26
2023-02-08T22:18:33.404Z,42.27
2023-02-08T22:21:00.124Z,43.05
2023-02-08T22:23:26.668Z,43.18
2023-02-08T22:25:53.857Z,42.90
2023-02-08T22:28:20.525Z,42.79
2023-02-08T22:30:48.265Z,42.45
2023-02-08T22:33:15.086Z,42.84
2023-02-08T22:35:41.915Z,42.67
2023-02-08T22:38:08.399Z,42.90
2023-02-08T22:40:34.982Z,42.60
2023-02-08T22:43:01.547Z,42.51
2023-02-08T22:45:28.102Z,41.85
2023-02-08T22:47:54.701Z,42.26
2023-02-08T22:50:21.188Z,41.45
2023-02-08T22:52:47.843Z,41.88
2023-02-08T22:55:14.464Z,41.74
2023-02-08T22:57:43.612Z,41.69
2023-02-08T23:00:10.582Z,41.27
2023-02-08T23:02:38.354Z,42.14
2023-02-08T23:05:04.984Z,41.75
2023-02-08T23:07:31.646Z,42.20
2023-02-08T23:09:58.186Z,41.87
2023-02-08T23:12:24.685Z,42.34
2023-02-08T23:14:51.337Z,42.31
2023-02-08T23:17:18.135Z,41.60
2023-02-08T23:19:44.978Z,41.14
2023-02-08T23:22:11.556Z,40.45
2023-02-08T23:24:38.086Z,41.48
2023-02-08T23:27:04.785Z,41.94
2023-02-08T23:29:31.487Z,41.67
2023-02-08T23:31:58.009Z,41.06
2023-02-08T23:34:26.060Z,41.46
2023-02-08T23:36:52.652Z,41.48
2023-02-08T23:39:19.225Z,41.36
2023-02-08T23:41:47.431Z,41.44
2023-02-08T23:44:14.001Z,42.19
2023-02-08T23:46:40.576Z,42.04
2023-02-08T23:49:07.176Z,42.07
2023-02-08T23:51:33.689Z,42.12
2023-02-08T23:54:00.238Z,41.85
2023-02-08T23:56:31.356Z,41.97
2023-02-08T23:58:58.438Z,41.68
